sensor_id;sensor_type;location;lat;lon;timestamp;P1;durP1;ratioP1;P2;durP2;ratioP2
73585;SDS011;61865;50.232;18.614;2023-06-04T00:02:16;9.25;;;4.60;;
73585;SDS011;61865;50.232;18.614;2023-06-04T00:04:39;6.75;;;3.50;;
73585;SDS011;61865;50.232;18.614;2023-06-04T00:07:01;7.35;;;4.10;;
73585;SDS011;61865;50.232;18.614;2023-06-04T00:09:23;17.30;;;4.38;;
73585;SDS011;61865;50.232;18.614;2023-06-04T00:11:46;7.35;;;4.53;;
73585;SDS011;61865;50.232;18.614;2023-06-04T00:14:08;7.25;;;4.10;;
73585;SDS011;61865;50.232;18.614;2023-06-04T00:16:31;7.10;;;4.22;;
73585;SDS011;61865;50.232;18.614;2023-06-04T00:18:55;9.63;;;4.35;;
73585;SDS011;61865;50.232;18.614;2023-06-04T00:21:17;6.05;;;3.85;;
73585;SDS011;61865;50.232;18.614;2023-06-04T00:23:39;9.73;;;4.07;;
73585;SDS011;61865;50.232;18.614;2023-06-04T00:26:01;8.57;;;3.95;;
73585;SDS011;61865;50.232;18.614;2023-06-04T00:28:26;8.45;;;3.72;;
73585;SDS011;61865;50.232;18.614;2023-06-04T00:30:48;8.38;;;4.20;;
73585;SDS011;61865;50.232;18.614;2023-06-04T00:33:10;10.25;;;3.72;;
73585;SDS011;61865;50.232;18.614;2023-06-04T00:35:32;8.38;;;3.60;;
73585;SDS011;61865;50.232;18.614;2023-06-04T00:37:54;5.68;;;3.45;;
73585;SDS011;61865;50.232;18.614;2023-06-04T00:40:16;9.27;;;3.83;;
73585;SDS011;61865;50.232;18.614;2023-06-04T00:42:39;7.05;;;4.10;;
73585;SDS011;61865;50.232;18.614;2023-06-04T00:45:02;10.65;;;4.30;;
73585;SDS011;61865;50.232;18.614;2023-06-04T00:47:29;7.28;;;4.63;;
73585;SDS011;61865;50.232;18.614;2023-06-04T00:49:53;9.23;;;3.78;;
73585;SDS011;61865;50.232;18.614;2023-06-04T00:52:18;7.80;;;3.65;;
73585;SDS011;61865;50.232;18.614;2023-06-04T00:54:40;7.32;;;3.88;;
73585;SDS011;61865;50.232;18.614;2023-06-04T00:57:02;12.63;;;4.40;;
73585;SDS011;61865;50.232;18.614;2023-06-04T00:59:25;8.57;;;3.65;;
73585;SDS011;61865;50.232;18.614;2023-06-04T01:01:51;10.95;;;3.92;;
73585;SDS011;61865;50.232;18.614;2023-06-04T01:04:21;7.82;;;3.92;;
73585;SDS011;61865;50.232;18.614;2023-06-04T01:06:49;9.20;;;4.32;;
73585;SDS011;61865;50.232;18.614;2023-06-04T01:09:12;7.60;;;3.75;;
73585;SDS011;61865;50.232;18.614;2023-06-04T01:11:35;7.22;;;4.18;;
73585;SDS011;61865;50.232;18.614;2023-06-04T01:13:58;6.32;;;3.88;;
73585;SDS011;61865;50.232;18.614;2023-06-04T01:16:20;8.35;;;3.80;;
73585;SDS011;61865;50.232;18.614;2023-06-04T01:18:44;9.32;;;3.78;;
73585;SDS011;61865;50.232;18.614;2023-06-04T01:21:08;6.82;;;3.22;;
73585;SDS011;61865;50.232;18.614;2023-06-04T01:23:34;7.85;;;3.75;;
73585;SDS011;61865;50.232;18.614;2023-06-04T01:26:08;8.38;;;3.78;;
73585;SDS011;61865;50.232;18.614;2023-06-04T01:28:32;7.75;;;3.15;;
73585;SDS011;61865;50.232;18.614;2023-06-04T01:30:56;6.00;;;3.75;;
73585;SDS011;61865;50.232;18.614;2023-06-04T01:33:19;7.18;;;3.53;;
73585;SDS011;61865;50.232;18.614;2023-06-04T01:35:43;5.80;;;3.08;;
73585;SDS011;61865;50.232;18.614;2023-06-04T01:38:05;6.38;;;3.13;;
73585;SDS011;61865;50.232;18.614;2023-06-04T01:40:28;5.43;;;3.60;;
73585;SDS011;61865;50.232;18.614;2023-06-04T01:42:50;7.32;;;3.33;;
73585;SDS011;61865;50.232;18.614;2023-06-04T01:45:12;11.45;;;4.47;;
73585;SDS011;61865;50.232;18.614;2023-06-04T01:47:34;7.72;;;3.63;;
73585;SDS011;61865;50.232;18.614;2023-06-04T01:49:56;6.78;;;3.60;;
73585;SDS011;61865;50.232;18.614;2023-06-04T01:52:20;5.50;;;3.30;;
73585;SDS011;61865;50.232;18.614;2023-06-04T01:54:42;8.43;;;4.22;;
73585;SDS011;61865;50.232;18.614;2023-06-04T01:57:04;6.00;;;3.60;;
73585;SDS011;61865;50.232;18.614;2023-06-04T01:59:28;6.63;;;3.75;;
73585;SDS011;61865;50.232;18.614;2023-06-04T02:01:52;7.28;;;3.70;;
73585;SDS011;61865;50.232;18.614;2023-06-04T02:04:14;7.75;;;3.70;;
73585;SDS011;61865;50.232;18.614;2023-06-04T02:06:36;9.70;;;3.60;;
73585;SDS011;61865;50.232;18.614;2023-06-04T02:08:59;9.75;;;3.95;;
73585;SDS011;61865;50.232;18.614;2023-06-04T02:11:24;6.72;;;3.50;;
73585;SDS011;61865;50.232;18.614;2023-06-04T02:13:46;11.98;;;3.90;;
73585;SDS011;61865;50.232;18.614;2023-06-04T02:16:08;9.10;;;4.43;;
73585;SDS011;61865;50.232;18.614;2023-06-04T02:18:30;9.23;;;5.25;;
73585;SDS011;61865;50.232;18.614;2023-06-04T02:20:52;9.00;;;4.70;;
73585;SDS011;61865;50.232;18.614;2023-06-04T02:23:15;8.82;;;4.10;;
73585;SDS011;61865;50.232;18.614;2023-06-04T02:25:40;10.80;;;4.55;;
73585;SDS011;61865;50.232;18.614;2023-06-04T02:28:04;7.75;;;3.50;;
73585;SDS011;61865;50.232;18.614;2023-06-04T02:30:27;5.97;;;3.63;;
73585;SDS011;61865;50.232;18.614;2023-06-04T02:32:49;11.15;;;4.03;;
73585;SDS011;61865;50.232;18.614;2023-06-04T02:35:11;14.43;;;4.28;;
73585;SDS011;61865;50.232;18.614;2023-06-04T02:37:33;8.50;;;4.53;;
73585;SDS011;61865;50.232;18.614;2023-06-04T02:39:55;7.03;;;4.13;;
73585;SDS011;61865;50.232;18.614;2023-06-04T02:42:18;9.25;;;4.70;;
73585;SDS011;61865;50.232;18.614;2023-06-04T02:44:40;16.27;;;4.55;;
73585;SDS011;61865;50.232;18.614;2023-06-04T02:47:02;13.20;;;4.60;;
73585;SDS011;61865;50.232;18.614;2023-06-04T02:49:25;7.93;;;4.70;;
73585;SDS011;61865;50.232;18.614;2023-06-04T02:51:47;7.18;;;4.57;;
73585;SDS011;61865;50.232;18.614;2023-06-04T02:54:09;6.63;;;4.25;;
73585;SDS011;61865;50.232;18.614;2023-06-04T02:56:31;8.98;;;3.78;;
73585;SDS011;61865;50.232;18.614;2023-06-04T02:58:56;8.20;;;3.97;;
73585;SDS011;61865;50.232;18.614;2023-06-04T03:01:19;10.75;;;4.78;;
73585;SDS011;61865;50.232;18.614;2023-06-04T03:03:41;12.88;;;4.63;;
73585;SDS011;61865;50.232;18.614;2023-06-04T03:06:05;7.22;;;4.05;;
73585;SDS011;61865;50.232;18.614;2023-06-04T03:08:27;10.38;;;4.32;;
73585;SDS011;61865;50.232;18.614;2023-06-04T03:10:50;7.80;;;4.15;;
73585;SDS011;61865;50.232;18.614;2023-06-04T03:13:12;8.40;;;4.10;;
73585;SDS011;61865;50.232;18.614;2023-06-04T03:15:36;7.53;;;3.83;;
73585;SDS011;61865;50.232;18.614;2023-06-04T03:17:59;12.32;;;4.30;;
73585;SDS011;61865;50.232;18.614;2023-06-04T03:20:21;7.93;;;4.35;;
73585;SDS011;61865;50.232;18.614;2023-06-04T03:22:44;8.40;;;4.32;;
73585;SDS011;61865;50.232;18.614;2023-06-04T03:25:06;19.05;;;3.70;;
73585;SDS011;61865;50.232;18.614;2023-06-04T03:27:30;9.63;;;4.47;;
73585;SDS011;61865;50.232;18.614;2023-06-04T03:29:52;10.70;;;3.60;;
73585;SDS011;61865;50.232;18.614;2023-06-04T03:32:15;7.55;;;3.97;;
73585;SDS011;61865;50.232;18.614;2023-06-04T03:34:38;8.77;;;3.58;;
73585;SDS011;61865;50.232;18.614;2023-06-04T03:37:00;6.35;;;3.10;;
73585;SDS011;61865;50.232;18.614;2023-06-04T03:39:23;5.50;;;2.92;;
73585;SDS011;61865;50.232;18.614;2023-06-04T03:41:45;12.10;;;4.15;;
73585;SDS011;61865;50.232;18.614;2023-06-04T03:44:07;7.38;;;3.78;;
73585;SDS011;61865;50.232;18.614;2023-06-04T03:46:29;7.47;;;3.53;;
73585;SDS011;61865;50.232;18.614;2023-06-04T03:48:55;5.38;;;3.03;;
73585;SDS011;61865;50.232;18.614;2023-06-04T03:51:16;5.45;;;2.97;;
73585;SDS011;61865;50.232;18.614;2023-06-04T03:53:39;7.20;;;3.08;;
73585;SDS011;61865;50.232;18.614;2023-06-04T03:56:02;5.95;;;3.50;;
73585;SDS011;61865;50.232;18.614;2023-06-04T03:58:25;8.43;;;3.15;;
73585;SDS011;61865;50.232;18.614;2023-06-04T04:00:48;9.13;;;3.60;;
73585;SDS011;61865;50.232;18.614;2023-06-04T04:03:11;7.47;;;2.92;;
73585;SDS011;61865;50.232;18.614;2023-06-04T04:05:35;9.43;;;3.15;;
73585;SDS011;61865;50.232;18.614;2023-06-04T04:07:57;10.40;;;3.35;;
73585;SDS011;61865;50.232;18.614;2023-06-04T04:10:19;6.85;;;3.50;;
73585;SDS011;61865;50.232;18.614;2023-06-04T04:12:41;5.97;;;3.28;;
73585;SDS011;61865;50.232;18.614;2023-06-04T04:15:03;6.88;;;3.10;;
73585;SDS011;61865;50.232;18.614;2023-06-04T04:17:26;8.45;;;3.65;;
73585;SDS011;61865;50.232;18.614;2023-06-04T04:19:48;9.57;;;3.53;;
73585;SDS011;61865;50.232;18.614;2023-06-04T04:22:12;6.47;;;3.10;;
73585;SDS011;61865;50.232;18.614;2023-06-04T04:24:37;5.20;;;2.47;;
73585;SDS011;61865;50.232;18.614;2023-06-04T04:26:59;5.68;;;2.90;;
73585;SDS011;61865;50.232;18.614;2023-06-04T04:29:23;9.23;;;3.13;;
73585;SDS011;61865;50.232;18.614;2023-06-04T04:31:48;7.40;;;3.00;;
73585;SDS011;61865;50.232;18.614;2023-06-04T04:34:10;6.70;;;2.72;;
73585;SDS011;61865;50.232;18.614;2023-06-04T04:36:32;5.13;;;2.47;;
73585;SDS011;61865;50.232;18.614;2023-06-04T04:38:57;6.40;;;2.75;;
73585;SDS011;61865;50.232;18.614;2023-06-04T04:41:20;12.48;;;2.90;;
73585;SDS011;61865;50.232;18.614;2023-06-04T04:43:42;6.93;;;2.72;;
73585;SDS011;61865;50.232;18.614;2023-06-04T04:46:04;6.07;;;2.90;;
73585;SDS011;61865;50.232;18.614;2023-06-04T04:48:26;6.00;;;2.90;;
73585;SDS011;61865;50.232;18.614;2023-06-04T04:50:49;6.80;;;3.30;;
73585;SDS011;61865;50.232;18.614;2023-06-04T04:53:11;6.75;;;2.90;;
73585;SDS011;61865;50.232;18.614;2023-06-04T04:55:34;3.63;;;2.50;;
73585;SDS011;61865;50.232;18.614;2023-06-04T04:57:56;7.15;;;3.30;;
73585;SDS011;61865;50.232;18.614;2023-06-04T05:00:18;5.60;;;2.75;;
73585;SDS011;61865;50.232;18.614;2023-06-04T05:02:40;10.18;;;3.20;;
73585;SDS011;61865;50.232;18.614;2023-06-04T05:05:02;6.43;;;2.70;;
73585;SDS011;61865;50.232;18.614;2023-06-04T05:07:25;6.38;;;3.20;;
73585;SDS011;61865;50.232;18.614;2023-06-04T05:09:48;5.60;;;3.00;;
73585;SDS011;61865;50.232;18.614;2023-06-04T05:12:11;6.10;;;2.72;;
73585;SDS011;61865;50.232;18.614;2023-06-04T05:14:34;9.38;;;2.70;;
73585;SDS011;61865;50.232;18.614;2023-06-04T05:16:56;7.10;;;2.95;;
73585;SDS011;61865;50.232;18.614;2023-06-04T05:19:18;7.35;;;3.10;;
73585;SDS011;61865;50.232;18.614;2023-06-04T05:21:41;4.93;;;2.72;;
73585;SDS011;61865;50.232;18.614;2023-06-04T05:24:03;5.10;;;2.75;;
73585;SDS011;61865;50.232;18.614;2023-06-04T05:26:25;5.57;;;3.00;;
73585;SDS011;61865;50.232;18.614;2023-06-04T05:28:50;7.45;;;3.17;;
73585;SDS011;61865;50.232;18.614;2023-06-04T05:31:12;5.13;;;2.63;;
73585;SDS011;61865;50.232;18.614;2023-06-04T05:33:35;10.30;;;3.20;;
73585;SDS011;61865;50.232;18.614;2023-06-04T05:35:57;5.35;;;2.88;;
73585;SDS011;61865;50.232;18.614;2023-06-04T05:38:20;6.57;;;2.72;;
73585;SDS011;61865;50.232;18.614;2023-06-04T05:40:45;7.75;;;3.30;;
73585;SDS011;61865;50.232;18.614;2023-06-04T05:43:08;7.70;;;2.63;;
73585;SDS011;61865;50.232;18.614;2023-06-04T05:45:31;7.53;;;2.90;;
73585;SDS011;61865;50.232;18.614;2023-06-04T05:47:53;7.93;;;2.97;;
73585;SDS011;61865;50.232;18.614;2023-06-04T05:50:15;7.07;;;2.72;;
73585;SDS011;61865;50.232;18.614;2023-06-04T05:52:38;8.68;;;2.88;;
73585;SDS011;61865;50.232;18.614;2023-06-04T05:55:00;5.10;;;2.38;;
73585;SDS011;61865;50.232;18.614;2023-06-04T05:57:22;5.53;;;2.65;;
73585;SDS011;61865;50.232;18.614;2023-06-04T05:59:44;6.63;;;3.15;;
73585;SDS011;61865;50.232;18.614;2023-06-04T06:02:08;5.38;;;2.65;;
73585;SDS011;61865;50.232;18.614;2023-06-04T06:04:30;6.13;;;2.75;;
73585;SDS011;61865;50.232;18.614;2023-06-04T06:06:52;8.68;;;3.10;;
73585;SDS011;61865;50.232;18.614;2023-06-04T06:09:15;5.75;;;2.90;;
73585;SDS011;61865;50.232;18.614;2023-06-04T06:11:38;4.95;;;2.40;;
73585;SDS011;61865;50.232;18.614;2023-06-04T06:14:00;4.65;;;2.33;;
73585;SDS011;61865;50.232;18.614;2023-06-04T06:16:22;8.63;;;2.47;;
73585;SDS011;61865;50.232;18.614;2023-06-04T06:18:46;8.38;;;2.72;;
73585;SDS011;61865;50.232;18.614;2023-06-04T06:21:08;7.22;;;2.72;;
73585;SDS011;61865;50.232;18.614;2023-06-04T06:23:30;4.75;;;2.63;;
73585;SDS011;61865;50.232;18.614;2023-06-04T06:25:52;6.32;;;2.67;;
73585;SDS011;61865;50.232;18.614;2023-06-04T06:28:15;5.97;;;2.70;;
73585;SDS011;61865;50.232;18.614;2023-06-04T06:30:39;3.90;;;2.17;;
73585;SDS011;61865;50.232;18.614;2023-06-04T06:33:01;8.40;;;2.65;;
73585;SDS011;61865;50.232;18.614;2023-06-04T06:35:24;4.18;;;2.25;;
73585;SDS011;61865;50.232;18.614;2023-06-04T06:37:46;6.28;;;2.78;;
73585;SDS011;61865;50.232;18.614;2023-06-04T06:40:09;6.93;;;3.72;;
73585;SDS011;61865;50.232;18.614;2023-06-04T06:42:32;6.28;;;2.70;;
73585;SDS011;61865;50.232;18.614;2023-06-04T06:44:54;5.95;;;2.45;;
73585;SDS011;61865;50.232;18.614;2023-06-04T06:47:16;4.75;;;2.20;;
73585;SDS011;61865;50.232;18.614;2023-06-04T06:49:38;4.90;;;2.58;;
73585;SDS011;61865;50.232;18.614;2023-06-04T06:52:02;5.30;;;2.30;;
73585;SDS011;61865;50.232;18.614;2023-06-04T06:54:25;6.47;;;2.78;;
73585;SDS011;61865;50.232;18.614;2023-06-04T06:56:47;8.10;;;2.45;;
73585;SDS011;61865;50.232;18.614;2023-06-04T06:59:11;6.10;;;2.55;;
73585;SDS011;61865;50.232;18.614;2023-06-04T07:01:32;8.40;;;2.70;;
73585;SDS011;61865;50.232;18.614;2023-06-04T07:03:54;5.28;;;2.50;;
73585;SDS011;61865;50.232;18.614;2023-06-04T07:06:16;6.43;;;2.40;;
73585;SDS011;61865;50.232;18.614;2023-06-04T07:08:40;12.43;;;2.38;;
73585;SDS011;61865;50.232;18.614;2023-06-04T07:11:02;5.55;;;2.33;;
73585;SDS011;61865;50.232;18.614;2023-06-04T07:13:25;6.88;;;2.38;;
73585;SDS011;61865;50.232;18.614;2023-06-04T07:15:47;8.00;;;2.45;;
73585;SDS011;61865;50.232;18.614;2023-06-04T07:18:09;9.95;;;2.30;;
73585;SDS011;61865;50.232;18.614;2023-06-04T07:20:32;9.75;;;2.20;;
73585;SDS011;61865;50.232;18.614;2023-06-04T07:22:54;6.82;;;2.55;;
73585;SDS011;61865;50.232;18.614;2023-06-04T07:25:17;4.82;;;2.17;;
73585;SDS011;61865;50.232;18.614;2023-06-04T07:27:41;6.03;;;2.55;;
73585;SDS011;61865;50.232;18.614;2023-06-04T07:30:04;3.92;;;2.17;;
73585;SDS011;61865;50.232;18.614;2023-06-04T07:32:27;3.50;;;2.28;;
73585;SDS011;61865;50.232;18.614;2023-06-04T07:34:49;5.28;;;2.30;;
73585;SDS011;61865;50.232;18.614;2023-06-04T07:37:11;8.98;;;2.50;;
73585;SDS011;61865;50.232;18.614;2023-06-04T07:39:35;9.50;;;2.55;;
73585;SDS011;61865;50.232;18.614;2023-06-04T07:41:59;12.07;;;2.38;;
73585;SDS011;61865;50.232;18.614;2023-06-04T07:44:21;5.90;;;2.40;;
73585;SDS011;61865;50.232;18.614;2023-06-04T07:46:43;10.48;;;3.00;;
73585;SDS011;61865;50.232;18.614;2023-06-04T07:49:05;5.00;;;2.50;;
73585;SDS011;61865;50.232;18.614;2023-06-04T07:51:27;6.80;;;2.22;;
73585;SDS011;61865;50.232;18.614;2023-06-04T07:53:49;7.40;;;2.22;;
73585;SDS011;61865;50.232;18.614;2023-06-04T07:56:11;7.25;;;2.22;;
73585;SDS011;61865;50.232;18.614;2023-06-04T07:58:35;4.78;;;2.10;;
73585;SDS011;61865;50.232;18.614;2023-06-04T08:00:57;5.72;;;2.33;;
73585;SDS011;61865;50.232;18.614;2023-06-04T08:03:19;9.15;;;2.30;;
73585;SDS011;61865;50.232;18.614;2023-06-04T08:05:41;3.75;;;2.00;;
73585;SDS011;61865;50.232;18.614;2023-06-04T08:08:03;9.30;;;2.50;;
73585;SDS011;61865;50.232;18.614;2023-06-04T08:10:26;4.13;;;2.10;;
73585;SDS011;61865;50.232;18.614;2023-06-04T08:12:48;6.93;;;2.28;;
73585;SDS011;61865;50.232;18.614;2023-06-04T08:15:11;7.03;;;2.00;;
73585;SDS011;61865;50.232;18.614;2023-06-04T08:17:33;10.35;;;2.08;;
73585;SDS011;61865;50.232;18.614;2023-06-04T08:19:56;4.95;;;2.08;;
73585;SDS011;61865;50.232;18.614;2023-06-04T08:22:18;3.80;;;2.00;;
73585;SDS011;61865;50.232;18.614;2023-06-04T08:24:40;4.65;;;2.00;;
73585;SDS011;61865;50.232;18.614;2023-06-04T08:27:02;8.20;;;2.10;;
73585;SDS011;61865;50.232;18.614;2023-06-04T08:29:25;7.70;;;2.55;;
73585;SDS011;61865;50.232;18.614;2023-06-04T08:31:48;5.28;;;2.05;;
73585;SDS011;61865;50.232;18.614;2023-06-04T08:34:10;21.13;;;2.25;;
73585;SDS011;61865;50.232;18.614;2023-06-04T08:36:32;6.35;;;2.03;;
73585;SDS011;61865;50.232;18.614;2023-06-04T08:38:55;4.47;;;2.10;;
73585;SDS011;61865;50.232;18.614;2023-06-04T08:41:18;6.07;;;2.13;;
73585;SDS011;61865;50.232;18.614;2023-06-04T08:43:46;4.03;;;2.05;;
73585;SDS011;61865;50.232;18.614;2023-06-04T08:46:09;3.20;;;1.80;;
73585;SDS011;61865;50.232;18.614;2023-06-04T08:48:34;6.20;;;2.25;;
73585;SDS011;61865;50.232;18.614;2023-06-04T08:50:56;4.88;;;1.95;;
73585;SDS011;61865;50.232;18.614;2023-06-04T08:53:20;7.13;;;2.50;;
73585;SDS011;61865;50.232;18.614;2023-06-04T08:55:42;9.00;;;2.95;;
73585;SDS011;61865;50.232;18.614;2023-06-04T08:58:05;18.88;;;2.55;;
73585;SDS011;61865;50.232;18.614;2023-06-04T09:00:28;16.13;;;2.85;;
73585;SDS011;61865;50.232;18.614;2023-06-04T09:02:50;5.22;;;2.15;;
73585;SDS011;61865;50.232;18.614;2023-06-04T09:05:17;6.80;;;2.10;;
73585;SDS011;61865;50.232;18.614;2023-06-04T09:07:41;6.95;;;1.90;;
73585;SDS011;61865;50.232;18.614;2023-06-04T09:10:04;4.93;;;2.15;;
73585;SDS011;61865;50.232;18.614;2023-06-04T09:12:28;7.07;;;2.05;;
73585;SDS011;61865;50.232;18.614;2023-06-04T09:14:51;4.82;;;2.13;;
73585;SDS011;61865;50.232;18.614;2023-06-04T09:17:13;9.70;;;2.20;;
73585;SDS011;61865;50.232;18.614;2023-06-04T09:19:35;6.70;;;2.35;;
73585;SDS011;61865;50.232;18.614;2023-06-04T09:21:59;4.95;;;1.75;;
73585;SDS011;61865;50.232;18.614;2023-06-04T09:24:23;4.15;;;2.15;;
73585;SDS011;61865;50.232;18.614;2023-06-04T09:26:46;7.72;;;1.92;;
73585;SDS011;61865;50.232;18.614;2023-06-04T09:29:09;5.45;;;2.20;;
73585;SDS011;61865;50.232;18.614;2023-06-04T09:31:31;3.97;;;1.92;;
73585;SDS011;61865;50.232;18.614;2023-06-04T09:33:57;3.85;;;2.03;;
73585;SDS011;61865;50.232;18.614;2023-06-04T09:36:19;6.60;;;2.47;;
73585;SDS011;61865;50.232;18.614;2023-06-04T09:38:43;4.13;;;1.90;;
73585;SDS011;61865;50.232;18.614;2023-06-04T09:41:10;9.45;;;1.92;;
73585;SDS011;61865;50.232;18.614;2023-06-04T09:43:32;5.82;;;2.03;;
73585;SDS011;61865;50.232;18.614;2023-06-04T09:45:55;4.35;;;2.00;;
73585;SDS011;61865;50.232;18.614;2023-06-04T09:48:21;4.75;;;1.90;;
73585;SDS011;61865;50.232;18.614;2023-06-04T09:50:43;4.47;;;2.15;;
73585;SDS011;61865;50.232;18.614;2023-06-04T09:53:12;3.55;;;1.90;;
73585;SDS011;61865;50.232;18.614;2023-06-04T09:55:36;9.43;;;2.25;;
73585;SDS011;61865;50.232;18.614;2023-06-04T09:57:58;6.38;;;2.22;;
73585;SDS011;61865;50.232;18.614;2023-06-04T10:00:22;4.65;;;2.00;;
73585;SDS011;61865;50.232;18.614;2023-06-04T10:02:45;9.73;;;2.10;;
73585;SDS011;61865;50.232;18.614;2023-06-04T10:05:08;5.03;;;1.95;;
73585;SDS011;61865;50.232;18.614;2023-06-04T10:07:34;9.88;;;2.00;;
73585;SDS011;61865;50.232;18.614;2023-06-04T10:09:58;7.55;;;2.03;;
73585;SDS011;61865;50.232;18.614;2023-06-04T10:12:23;6.47;;;2.35;;
73585;SDS011;61865;50.232;18.614;2023-06-04T10:14:50;4.65;;;2.10;;
73585;SDS011;61865;50.232;18.614;2023-06-04T10:17:13;7.97;;;2.00;;
73585;SDS011;61865;50.232;18.614;2023-06-04T10:19:36;4.45;;;1.83;;
73585;SDS011;61865;50.232;18.614;2023-06-04T10:22:01;3.05;;;1.98;;
73585;SDS011;61865;50.232;18.614;2023-06-04T10:24:24;4.03;;;2.03;;
73585;SDS011;61865;50.232;18.614;2023-06-04T10:26:46;3.70;;;1.83;;
73585;SDS011;61865;50.232;18.614;2023-06-04T10:29:11;3.80;;;2.00;;
73585;SDS011;61865;50.232;18.614;2023-06-04T10:31:36;5.80;;;2.00;;
73585;SDS011;61865;50.232;18.614;2023-06-04T10:33:59;5.03;;;2.05;;
73585;SDS011;61865;50.232;18.614;2023-06-04T10:36:23;6.97;;;2.08;;
73585;SDS011;61865;50.232;18.614;2023-06-04T10:38:46;6.65;;;2.08;;
73585;SDS011;61865;50.232;18.614;2023-06-04T10:41:12;2.65;;;1.70;;
73585;SDS011;61865;50.232;18.614;2023-06-04T10:43:36;7.95;;;2.08;;
73585;SDS011;61865;50.232;18.614;2023-06-04T10:46:10;4.43;;;2.28;;
73585;SDS011;61865;50.232;18.614;2023-06-04T10:48:32;4.43;;;1.88;;
73585;SDS011;61865;50.232;18.614;2023-06-04T10:50:54;4.97;;;1.83;;
73585;SDS011;61865;50.232;18.614;2023-06-04T10:53:17;3.88;;;1.95;;
73585;SDS011;61865;50.232;18.614;2023-06-04T10:55:43;3.88;;;2.10;;
73585;SDS011;61865;50.232;18.614;2023-06-04T10:58:06;10.30;;;2.25;;
73585;SDS011;61865;50.232;18.614;2023-06-04T11:00:34;9.25;;;2.42;;
73585;SDS011;61865;50.232;18.614;2023-06-04T11:02:58;3.10;;;2.05;;
73585;SDS011;61865;50.232;18.614;2023-06-04T11:05:20;3.75;;;1.85;;
73585;SDS011;61865;50.232;18.614;2023-06-04T11:07:43;3.70;;;2.00;;
73585;SDS011;61865;50.232;18.614;2023-06-04T11:10:06;4.43;;;2.15;;
73585;SDS011;61865;50.232;18.614;2023-06-04T11:12:29;3.97;;;2.20;;
73585;SDS011;61865;50.232;18.614;2023-06-04T11:15:02;5.43;;;2.25;;
73585;SDS011;61865;50.232;18.614;2023-06-04T11:17:24;3.83;;;2.25;;
73585;SDS011;61865;50.232;18.614;2023-06-04T11:19:48;8.02;;;2.40;;
73585;SDS011;61865;50.232;18.614;2023-06-04T11:22:10;4.28;;;2.10;;
73585;SDS011;61865;50.232;18.614;2023-06-04T11:24:34;3.83;;;2.05;;
73585;SDS011;61865;50.232;18.614;2023-06-04T11:26:56;4.72;;;2.28;;
73585;SDS011;61865;50.232;18.614;2023-06-04T11:29:19;4.18;;;1.90;;
73585;SDS011;61865;50.232;18.614;2023-06-04T11:31:42;5.75;;;2.38;;
73585;SDS011;61865;50.232;18.614;2023-06-04T11:34:05;3.20;;;1.83;;
73585;SDS011;61865;50.232;18.614;2023-06-04T11:36:29;8.43;;;2.50;;
73585;SDS011;61865;50.232;18.614;2023-06-04T11:38:56;3.83;;;1.98;;
73585;SDS011;61865;50.232;18.614;2023-06-04T11:41:18;4.53;;;2.40;;
73585;SDS011;61865;50.232;18.614;2023-06-04T11:43:43;4.45;;;2.35;;
73585;SDS011;61865;50.232;18.614;2023-06-04T11:46:09;4.57;;;2.35;;
73585;SDS011;61865;50.232;18.614;2023-06-04T11:48:31;4.68;;;2.28;;
73585;SDS011;61865;50.232;18.614;2023-06-04T11:50:55;4.55;;;2.20;;
73585;SDS011;61865;50.232;18.614;2023-06-04T11:53:19;5.35;;;2.30;;
73585;SDS011;61865;50.232;18.614;2023-06-04T11:55:41;4.88;;;2.17;;
73585;SDS011;61865;50.232;18.614;2023-06-04T11:58:03;7.43;;;1.98;;
73585;SDS011;61865;50.232;18.614;2023-06-04T12:00:25;4.25;;;2.22;;
73585;SDS011;61865;50.232;18.614;2023-06-04T12:02:49;4.35;;;2.20;;
73585;SDS011;61865;50.232;18.614;2023-06-04T12:05:13;4.43;;;2.10;;
73585;SDS011;61865;50.232;18.614;2023-06-04T12:07:35;3.45;;;2.20;;
73585;SDS011;61865;50.232;18.614;2023-06-04T12:10:06;5.55;;;2.22;;
73585;SDS011;61865;50.232;18.614;2023-06-04T12:12:28;3.00;;;1.90;;
73585;SDS011;61865;50.232;18.614;2023-06-04T12:14:57;6.55;;;2.20;;
73585;SDS011;61865;50.232;18.614;2023-06-04T12:17:19;7.10;;;2.13;;
73585;SDS011;61865;50.232;18.614;2023-06-04T12:19:46;2.75;;;1.70;;
73585;SDS011;61865;50.232;18.614;2023-06-04T12:22:08;5.68;;;2.03;;
73585;SDS011;61865;50.232;18.614;2023-06-04T12:24:31;8.13;;;2.28;;
73585;SDS011;61865;50.232;18.614;2023-06-04T12:27:02;5.57;;;2.03;;
73585;SDS011;61865;50.232;18.614;2023-06-04T12:29:25;4.88;;;2.20;;
73585;SDS011;61865;50.232;18.614;2023-06-04T12:31:48;5.07;;;2.40;;
73585;SDS011;61865;50.232;18.614;2023-06-04T12:34:10;10.73;;;2.30;;
73585;SDS011;61865;50.232;18.614;2023-06-04T12:36:32;4.07;;;2.25;;
73585;SDS011;61865;50.232;18.614;2023-06-04T12:38:57;5.30;;;2.30;;
73585;SDS011;61865;50.232;18.614;2023-06-04T12:41:20;9.45;;;2.20;;
73585;SDS011;61865;50.232;18.614;2023-06-04T12:43:43;5.13;;;2.35;;
73585;SDS011;61865;50.232;18.614;2023-06-04T12:46:06;6.70;;;2.20;;
73585;SDS011;61865;50.232;18.614;2023-06-04T12:48:28;3.78;;;2.05;;
73585;SDS011;61865;50.232;18.614;2023-06-04T12:50:50;7.53;;;2.85;;
73585;SDS011;61865;50.232;18.614;2023-06-04T12:53:12;5.18;;;2.50;;
73585;SDS011;61865;50.232;18.614;2023-06-04T12:55:34;5.07;;;2.38;;
73585;SDS011;61865;50.232;18.614;2023-06-04T12:57:56;6.25;;;2.00;;
73585;SDS011;61865;50.232;18.614;2023-06-04T13:00:19;6.05;;;2.30;;
73585;SDS011;61865;50.232;18.614;2023-06-04T13:02:43;5.95;;;2.42;;
73585;SDS011;61865;50.232;18.614;2023-06-04T13:05:05;5.70;;;2.13;;
73585;SDS011;61865;50.232;18.614;2023-06-04T13:07:27;6.07;;;2.38;;
73585;SDS011;61865;50.232;18.614;2023-06-04T13:09:49;8.20;;;2.38;;
73585;SDS011;61865;50.232;18.614;2023-06-04T13:12:11;4.05;;;1.95;;
73585;SDS011;61865;50.232;18.614;2023-06-04T13:14:33;4.82;;;2.50;;
73585;SDS011;61865;50.232;18.614;2023-06-04T13:16:57;5.35;;;2.00;;
73585;SDS011;61865;50.232;18.614;2023-06-04T13:19:19;7.05;;;2.45;;
73585;SDS011;61865;50.232;18.614;2023-06-04T13:21:41;4.00;;;2.10;;
73585;SDS011;61865;50.232;18.614;2023-06-04T13:24:03;3.97;;;2.20;;
73585;SDS011;61865;50.232;18.614;2023-06-04T13:26:25;3.03;;;1.92;;
73585;SDS011;61865;50.232;18.614;2023-06-04T13:28:47;9.80;;;2.10;;
73585;SDS011;61865;50.232;18.614;2023-06-04T13:31:10;3.92;;;2.30;;
73585;SDS011;61865;50.232;18.614;2023-06-04T13:33:33;7.18;;;2.20;;
73585;SDS011;61865;50.232;18.614;2023-06-04T13:35:56;5.57;;;2.33;;
73585;SDS011;61865;50.232;18.614;2023-06-04T13:38:18;4.55;;;2.20;;
73585;SDS011;61865;50.232;18.614;2023-06-04T13:40:40;5.28;;;2.20;;
73585;SDS011;61865;50.232;18.614;2023-06-04T13:43:04;6.00;;;1.95;;
73585;SDS011;61865;50.232;18.614;2023-06-04T13:45:26;5.75;;;2.30;;
73585;SDS011;61865;50.232;18.614;2023-06-04T13:47:48;5.32;;;2.50;;
73585;SDS011;61865;50.232;18.614;2023-06-04T13:50:12;5.70;;;2.00;;
73585;SDS011;61865;50.232;18.614;2023-06-04T13:52:34;5.20;;;2.30;;
73585;SDS011;61865;50.232;18.614;2023-06-04T13:54:56;5.75;;;2.38;;
73585;SDS011;61865;50.232;18.614;2023-06-04T13:57:18;5.35;;;2.40;;
73585;SDS011;61865;50.232;18.614;2023-06-04T13:59:40;6.05;;;2.42;;
73585;SDS011;61865;50.232;18.614;2023-06-04T14:02:02;6.35;;;2.25;;
73585;SDS011;61865;50.232;18.614;2023-06-04T14:04:24;6.13;;;2.45;;
73585;SDS011;61865;50.232;18.614;2023-06-04T14:06:48;5.78;;;2.25;;
73585;SDS011;61865;50.232;18.614;2023-06-04T14:09:10;8.73;;;2.35;;